Time,TemperatureF,DewpointF,PressureIn,WindDirection,WindDirectionDegrees,WindSpeedMPH,WindSpeedGustMPH,Humidity,HourlyPrecipIn,Conditions,Clouds,dailyrainin,SolarRadiationWatts/m^2,SoftwareType,DateUTC
2013-04-16 00:13:00,69.0,-28.0,-100.00,SE,141,6.0,12.0,0,0.00,,,0.00,0.000000,,2013-04-16 10:13:00,
2013-04-16 00:22:00,69.0,-28.0,-100.00,SE,141,6.0,12.0,0,0.00,,,0.00,0.000000,,2013-04-16 10:22:00,
2013-04-16 00:32:00,69.0,-28.0,-100.00,SE,141,6.0,12.0,0,0.00,,,0.00,0.000000,,2013-04-16 10:32:00,
2013-04-16 00:42:00,69.0,-28.0,-100.00,SE,141,6.0,12.0,0,0.00,,,0.00,0.000000,,2013-04-16 10:42:00,
2013-04-16 00:52:00,69.0,-28.0,-100.00,NNE,14,9.0,26.0,0,0.00,,,0.00,0.000000,,2013-04-16 10:52:00,
2013-04-16 01:22:00,69.0,-28.0,-100.00,NNE,14,9.0,26.0,0,0.00,,,0.00,0.000000,,2013-04-16 11:22:00,
2013-04-16 01:32:00,69.0,-28.0,-100.00,NNE,14,9.0,26.0,0,0.00,,,0.00,0.000000,,2013-04-16 11:32:00,
2013-04-16 01:42:00,69.0,-28.0,-100.00,NNE,14,9.0,26.0,0,0.00,,,0.00,0.000000,,2013-04-16 11:42:00,
2013-04-16 02:12:00,69.0,-28.0,-100.00,SE,125,8.0,23.0,0,0.00,,,0.00,0.000000,,2013-04-16 12:12:00,
2013-04-16 02:22:00,69.0,-28.0,-100.00,SE,125,8.0,23.0,0,0.00,,,0.00,0.000000,,2013-04-16 12:22:00,
2013-04-16 02:32:00,69.0,-28.0,-100.00,SE,125,8.0,23.0,0,0.00,,,0.00,0.000000,,2013-04-16 12:32:00,
2013-04-16 02:42:00,69.0,-28.0,-100.00,SE,125,8.0,23.0,0,0.00,,,0.00,0.000000,,2013-04-16 12:42:00,
2013-04-16 02:51:00,69.0,-28.0,-100.00,SE,125,8.0,23.0,0,0.00,,,0.00,0.000000,,2013-04-16 12:51:00,
2013-04-16 02:52:00,70.0,-27.0,-100.00,SSE,155,10.0,26.0,0,0.00,,,0.00,0.000000,,2013-04-16 12:52:00,
2013-04-16 03:22:00,70.0,-27.0,-100.00,SSE,155,10.0,26.0,0,0.00,,,0.00,0.000000,,2013-04-16 13:22:00,
2013-04-16 03:32:00,70.0,-27.0,-100.00,SSE,155,10.0,26.0,0,0.00,,,0.00,0.000000,,2013-04-16 13:32:00,
2013-04-16 03:42:00,70.0,-27.0,-100.00,SSE,155,10.0,26.0,0,0.00,,,0.00,0.000000,,2013-04-16 13:42:00,
2013-04-16 04:12:00,69.0,-28.0,-100.00,NNW,345,9.0,16.0,0,0.00,,,0.00,0.000000,,2013-04-16 14:12:00,
2013-04-16 04:22:00,69.0,-28.0,-100.00,NNW,345,9.0,16.0,0,0.00,,,0.00,0.000000,,2013-04-16 14:22:00,
2013-04-16 04:32:00,69.0,-28.0,-100.00,NNW,345,9.0,16.0,0,0.00,,,0.00,0.000000,,2013-04-16 14:32:00,
2013-04-16 04:42:00,69.0,-28.0,-100.00,NNW,345,9.0,16.0,0,0.00,,,0.00,0.000000,,2013-04-16 14:42:00,
2013-04-16 04:51:00,69.0,-28.0,-100.00,NNW,345,9.0,16.0,0,0.00,,,0.00,0.000000,,2013-04-16 14:51:00,
2013-04-16 04:52:00,68.0,-28.0,-100.00,North,353,4.0,13.0,0,0.00,,,0.00,0.000000,,2013-04-16 14:52:00,
2013-04-16 05:12:00,68.0,-28.0,-100.00,North,353,4.0,13.0,0,0.00,,,0.00,0.000000,,2013-04-16 15:12:00,
2013-04-16 05:22:00,68.0,-28.0,-100.00,North,353,4.0,13.0,0,0.00,,,0.00,0.000000,,2013-04-16 15:22:00,
2013-04-16 05:32:00,68.0,-28.0,-100.00,North,353,4.0,13.0,0,0.00,,,0.00,0.000000,,2013-04-16 15:32:00,
2013-04-16 05:43:00,68.0,-28.0,-100.00,North,353,4.0,13.0,0,0.00,,,0.00,0.000000,,2013-04-16 15:43:00,
2013-04-16 05:52:00,68.0,-28.0,-100.00,SSE,152,10.0,16.0,0,0.00,,,0.00,0.000000,,2013-04-16 15:52:00,
2013-04-16 06:13:00,68.0,-28.0,-100.00,SSE,152,10.0,16.0,0,0.00,,,0.00,0.000000,,2013-04-16 16:13:00,
2013-04-16 06:23:00,68.0,-28.0,-100.00,SSE,152,10.0,16.0,0,0.00,,,0.00,0.000000,,2013-04-16 16:23:00,
2013-04-16 06:32:00,68.0,-28.0,-100.00,SSE,152,10.0,16.0,0,0.00,,,0.00,0.000000,,2013-04-16 16:32:00,
2013-04-16 06:42:00,68.0,-28.0,-100.00,SSE,152,10.0,16.0,0,0.00,,,0.00,0.000000,,2013-04-16 16:42:00,
2013-04-16 06:52:00,68.0,-28.0,-100.00,SSE,149,16.0,24.0,0,0.00,,,0.00,0.000000,,2013-04-16 16:52:00,
2013-04-16 07:22:00,68.0,-28.0,-100.00,SSE,149,16.0,24.0,0,0.00,,,0.00,0.000000,,2013-04-16 17:22:00,
2013-04-16 07:32:00,68.0,-28.0,-100.00,SSE,149,16.0,24.0,0,0.00,,,0.00,0.000000,,2013-04-16 17:32:00,
2013-04-16 07:43:00,68.0,-28.0,-100.00,SSE,149,16.0,24.0,0,0.00,,,0.00,0.000000,,2013-04-16 17:43:00,
2013-04-16 07:52:00,70.0,-27.0,-100.00,ESE,114,13.0,23.0,0,0.00,,,0.00,67.000000,,2013-04-16 17:52:00,
2013-04-16 08:22:00,70.0,-27.0,-100.00,ESE,114,13.0,23.0,0,0.00,,,0.00,67.000000,,2013-04-16 18:22:00,
2013-04-16 08:32:00,70.0,-27.0,-100.00,ESE,114,13.0,23.0,0,0.00,,,0.00,67.000000,,2013-04-16 18:32:00,
2013-04-16 08:42:00,70.0,-27.0,-100.00,ESE,114,13.0,23.0,0,0.00,,,0.00,67.000000,,2013-04-16 18:42:00,
2013-04-16 08:52:00,75.0,-24.0,-100.00,ENE,66,9.0,26.0,0,0.00,,,0.00,326.000000,,2013-04-16 18:52:00,
2013-04-16 09:22:00,75.0,-24.0,-100.00,ENE,66,9.0,26.0,0,0.00,,,0.00,326.000000,,2013-04-16 19:22:00,
2013-04-16 09:32:00,75.0,-24.0,-100.00,ENE,66,9.0,26.0,0,0.00,,,0.00,326.000000,,2013-04-16 19:32:00,
2013-04-16 09:42:00,75.0,-24.0,-100.00,ENE,66,9.0,26.0,0,0.00,,,0.00,326.000000,,2013-04-16 19:42:00,
2013-04-16 10:12:00,75.0,-24.0,-100.00,SE,130,9.0,15.0,0,0.00,,,0.00,589.000000,,2013-04-16 20:12:00,
2013-04-16 10:22:00,75.0,-24.0,-100.00,SE,130,9.0,15.0,0,0.00,,,0.00,589.000000,,2013-04-16 20:22:00,
2013-04-16 10:32:00,75.0,-24.0,-100.00,SE,130,9.0,15.0,0,0.00,,,0.00,589.000000,,2013-04-16 20:32:00,
2013-04-16 10:42:00,75.0,-24.0,-100.00,SE,130,9.0,15.0,0,0.00,,,0.00,589.000000,,2013-04-16 20:42:00,
2013-04-16 10:51:00,75.0,-24.0,-100.00,SE,130,9.0,15.0,0,0.00,,,0.00,589.000000,,2013-04-16 20:51:00,
2013-04-16 10:52:00,77.0,-23.0,-100.00,NE,52,11.0,19.0,0,0.00,,,0.00,905.000000,,2013-04-16 20:52:00,
2013-04-16 11:22:00,77.0,-23.0,-100.00,NE,52,11.0,19.0,0,0.00,,,0.00,905.000000,,2013-04-16 21:22:00,
2013-04-16 11:32:00,77.0,-23.0,-100.00,NE,52,11.0,19.0,0,0.00,,,0.00,905.000000,,2013-04-16 21:32:00,
2013-04-16 11:42:00,77.0,-23.0,-100.00,NE,52,11.0,19.0,0,0.00,,,0.00,905.000000,,2013-04-16 21:42:00,
2013-04-16 11:52:00,78.0,-22.0,-100.00,SSW,207,16.0,20.0,0,0.00,,,0.00,929.000000,,2013-04-16 21:52:00,
2013-04-16 12:22:00,78.0,-22.0,-100.00,SSW,207,16.0,20.0,0,0.00,,,0.00,929.000000,,2013-04-16 22:22:00,
2013-04-16 12:32:00,78.0,-22.0,-100.00,SSW,207,16.0,20.0,0,0.00,,,0.00,929.000000,,2013-04-16 22:32:00,
2013-04-16 12:42:00,78.0,-22.0,-100.00,SSW,207,16.0,20.0,0,0.00,,,0.00,929.000000,,2013-04-16 22:42:00,
2013-04-16 12:52:00,78.0,-22.0,-100.00,SE,127,17.0,25.0,0,0.00,,,0.00,1128.000000,,2013-04-16 22:52:00,
2013-04-16 13:22:00,78.0,-22.0,-100.00,SE,127,17.0,25.0,0,0.00,,,0.00,1128.000000,,2013-04-16 23:22:00,
2013-04-16 13:32:00,78.0,-22.0,-100.00,SE,127,17.0,25.0,0,0.00,,,0.00,1128.000000,,2013-04-16 23:32:00,
2013-04-16 13:42:00,78.0,-22.0,-100.00,SE,127,17.0,25.0,0,0.00,,,0.00,1128.000000,,2013-04-16 23:42:00,
2013-04-16 13:52:00,78.0,-22.0,-100.00,SE,142,19.0,28.0,0,0.00,,,0.00,1115.000000,,2013-04-16 23:52:00,
2013-04-16 14:12:00,78.0,-22.0,-100.00,SE,142,19.0,28.0,0,0.00,,,0.00,1115.000000,,2013-04-17 00:12:00,
2013-04-16 14:22:00,78.0,-22.0,-100.00,SE,142,19.0,28.0,0,0.00,,,0.00,1115.000000,,2013-04-17 00:22:00,
2013-04-16 14:32:00,78.0,-22.0,-100.00,SE,142,19.0,28.0,0,0.00,,,0.00,1115.000000,,2013-04-17 00:32:00,
2013-04-16 14:42:00,78.0,-22.0,-100.00,SE,142,19.0,28.0,0,0.00,,,0.00,1115.000000,,2013-04-17 00:42:00,
2013-04-16 14:52:00,78.0,-22.0,-100.00,SE,137,18.0,28.0,0,0.00,,,0.00,1234.000000,,2013-04-17 00:52:00,
2013-04-16 15:12:00,78.0,-22.0,-100.00,SE,137,18.0,28.0,0,0.00,,,0.00,1234.000000,,2013-04-17 01:12:00,
2013-04-16 15:22:00,78.0,-22.0,-100.00,SE,137,18.0,28.0,0,0.00,,,0.00,1234.000000,,2013-04-17 01:22:00,
2013-04-16 15:32:00,78.0,-22.0,-100.00,SE,137,18.0,28.0,0,0.00,,,0.00,1234.000000,,2013-04-17 01:32:00,
2013-04-16 15:42:00,78.0,-22.0,-100.00,SE,137,18.0,28.0,0,0.00,,,0.00,1234.000000,,2013-04-17 01:42:00,
2013-04-16 15:52:00,75.0,-24.0,-100.00,ESE,105,17.0,28.0,0,0.00,,,0.00,884.000000,,2013-04-17 01:52:00,
2013-04-16 16:22:00,75.0,-24.0,-100.00,ESE,105,17.0,28.0,0,0.00,,,0.00,884.000000,,2013-04-17 02:22:00,
2013-04-16 16:32:00,75.0,-24.0,-100.00,ESE,105,17.0,28.0,0,0.00,,,0.00,884.000000,,2013-04-17 02:32:00,
2013-04-16 16:42:00,75.0,-24.0,-100.00,ESE,105,17.0,28.0,0,0.00,,,0.00,884.000000,,2013-04-17 02:42:00,
2013-04-16 16:52:00,75.0,-24.0,-100.00,SSE,167,18.0,27.0,0,0.00,,,0.00,618.000000,,2013-04-17 02:52:00,
2013-04-16 17:12:00,75.0,-24.0,-100.00,SSE,167,18.0,27.0,0,0.00,,,0.00,618.000000,,2013-04-17 03:12:00,
2013-04-16 17:22:00,75.0,-24.0,-100.00,SSE,167,18.0,27.0,0,0.00,,,0.00,618.000000,,2013-04-17 03:22:00,
2013-04-16 17:32:00,75.0,-24.0,-100.00,SSE,167,18.0,27.0,0,0.00,,,0.00,618.000000,,2013-04-17 03:32:00,
2013-04-16 17:42:00,75.0,-24.0,-100.00,SSE,167,18.0,27.0,0,0.00,,,0.00,618.000000,,2013-04-17 03:42:00,
2013-04-16 17:52:00,74.0,-25.0,-100.00,SE,140,15.0,26.0,0,0.00,,,0.00,297.000000,,2013-04-17 03:52:00,
2013-04-16 18:22:00,74.0,-25.0,-100.00,SE,140,15.0,26.0,0,0.00,,,0.00,297.000000,,2013-04-17 04:22:00,
2013-04-16 18:33:00,74.0,-25.0,-100.00,SE,140,15.0,26.0,0,0.00,,,0.00,297.000000,,2013-04-17 04:33:00,
2013-04-16 18:42:00,74.0,-25.0,-100.00,SE,140,15.0,26.0,0,0.00,,,0.00,297.000000,,2013-04-17 04:42:00,
2013-04-16 18:52:00,73.0,-25.0,-100.00,SE,135,13.0,26.0,0,0.00,,,0.00,182.000000,,2013-04-17 04:52:00,
2013-04-16 19:22:00,73.0,-25.0,-100.00,SE,135,13.0,26.0,0,0.00,,,0.00,182.000000,,2013-04-17 05:22:00,
2013-04-16 19:32:00,73.0,-25.0,-100.00,SE,135,13.0,26.0,0,0.00,,,0.00,182.000000,,2013-04-17 05:32:00,
2013-04-16 19:42:00,73.0,-25.0,-100.00,SE,135,13.0,26.0,0,0.00,,,0.00,182.000000,,2013-04-17 05:42:00,
2013-04-16 20:12:00,72.0,-26.0,-100.00,SE,138,13.0,25.0,0,0.00,,,0.00,19.000000,,2013-04-17 06:12:00,
2013-04-16 20:22:00,72.0,-26.0,-100.00,SE,138,13.0,25.0,0,0.00,,,0.00,19.000000,,2013-04-17 06:22:00,
2013-04-16 20:32:00,72.0,-26.0,-100.00,SE,138,13.0,25.0,0,0.00,,,0.00,19.000000,,2013-04-17 06:32:00,
2013-04-16 20:42:00,72.0,-26.0,-100.00,SE,138,13.0,25.0,0,0.00,,,0.00,19.000000,,2013-04-17 06:42:00,
2013-04-16 20:51:00,72.0,-26.0,-100.00,SE,138,13.0,25.0,0,0.00,,,0.00,19.000000,,2013-04-17 06:51:00,
2013-04-16 20:52:00,72.0,-26.0,-100.00,SE,137,12.0,28.0,0,0.00,,,0.00,0.000000,,2013-04-17 06:52:00,
2013-04-16 21:12:00,72.0,-26.0,-100.00,SE,137,12.0,28.0,0,0.00,,,0.00,0.000000,,2013-04-17 07:12:00,
2013-04-16 21:22:00,72.0,-26.0,-100.00,SE,137,12.0,28.0,0,0.00,,,0.00,0.000000,,2013-04-17 07:22:00,
2013-04-16 21:32:00,72.0,-26.0,-100.00,SE,137,12.0,28.0,0,0.00,,,0.00,0.000000,,2013-04-17 07:32:00,
2013-04-16 21:42:00,72.0,-26.0,-100.00,SE,137,12.0,28.0,0,0.00,,,0.00,0.000000,,2013-04-17 07:42:00,
2013-04-16 21:52:00,72.0,-26.0,-100.00,ESE,111,12.0,28.0,0,0.00,,,0.00,0.000000,,2013-04-17 07:52:00,
2013-04-16 22:22:00,72.0,-26.0,-100.00,ESE,111,12.0,28.0,0,0.00,,,0.00,0.000000,,2013-04-17 08:22:00,
2013-04-16 22:32:00,72.0,-26.0,-100.00,ESE,111,12.0,28.0,0,0.00,,,0.00,0.000000,,2013-04-17 08:32:00,
2013-04-16 22:42:00,72.0,-26.0,-100.00,ESE,111,12.0,28.0,0,0.00,,,0.00,0.000000,,2013-04-17 08:42:00,
2013-04-16 22:52:00,70.0,-27.0,-100.00,WNW,293,10.0,28.0,0,0.00,,,0.00,0.000000,,2013-04-17 08:52:00,
2013-04-16 23:12:00,70.0,-27.0,-100.00,WNW,293,10.0,28.0,0,0.00,,,0.00,0.000000,,2013-04-17 09:12:00,
2013-04-16 23:22:00,70.0,-27.0,-100.00,WNW,293,10.0,28.0,0,0.00,,,0.00,0.000000,,2013-04-17 09:22:00,
2013-04-16 23:33:00,70.0,-27.0,-100.00,WNW,293,10.0,28.0,0,0.00,,,0.00,0.000000,,2013-04-17 09:33:00,
2013-04-16 23:42:00,70.0,-27.0,-100.00,WNW,293,10.0,28.0,0,0.00,,,0.00,0.000000,,2013-04-17 09:42:00,
2013-04-16 23:52:00,69.0,-28.0,-100.00,ESE,122,11.0,27.0,0,0.00,,,0.00,0.000000,,2013-04-17 09:52:00,